Don's Testing Zone


Current Conditions
weather data
source:

National Weather Service
Clear Hot Springs, AR
Clear, 57°F
Sunday, December 10, 2017 5:53 PM CST
Temperature: 57°F/14°C
Humidity: 31%
Barometer: 30.19in/1022.6mb Barometer Steady
Wind: W at 8mph/13kmh
View other cities:
Searcy | Little Rock | Hot Springs | Russellville | More...
Astronomical Conditions (Clear Sky Clock)
Searcy Clear Sky Clock
    

Radar Images

NWS
    Wx Underground

NWS METAR weather data

ADDS - METARS form results





Aviation Digital Data Service (ADDS) Output produced by METARs form (0015 UTC 11 December 2017) found at http://www.aviationweather.gov/adds/metars/ 

KHOT 102353Z AUTO 25007KT 10SM CLR 14/M03 A3019 RMK AO2 SLP226 T01441028 1017820144 50004

KHOT 102253Z AUTO 25008KT 10SM CLR 16/M03 A3020 RMK AO2 SLP226 T01561028

KHOT 102153Z AUTO 24010G20KT 10SM CLR 17/M03 A3018 RMK AO2 SLP221 T01721033

KHOT 102053Z AUTO 24013G20KT 10SM CLR 18/M03 A3018 RMK AO2 SLP221 T0178103356028

KHOT 101953Z AUTO 24011G19KT 10SM CLR 17/M03 A3019 RMK AO2 SLP224 T01721033

KHOT 101853Z AUTO 24012KT 10SM CLR 17/M03 A3022 RMK AO2 SLP235 T01721033

KHOT 101753Z AUTO 27012G19KT 10SM CLR 14/M03 A3027 RMK AO2 SLP249 T0144103310144 21039 58019

KHOT 101653Z AUTO 25012G15KT 10SM CLR 13/M03 A3030 RMK AO2 SLP260 T01281033

KHOT 101553Z AUTO VRB03KT 10SM CLR 08/M02 A3032 RMK AO2 SLP269 T00831022

KHOT 101453Z AUTO 00000KT 10SM CLR 02/M01 A3032 RMK AO2 SLP270 T00221011 51001

KHOT 101353Z AUTO 00000KT 10SM CLR M02/M03 A3032 RMK AO2 SLP271 T10171033

KHOT 101253Z AUTO 00000KT 10SM CLR M03/M04 A3032 RMK AO2 SLP271 T10281039

KHOT 101153Z AUTO 00000KT 10SM CLR M03/M04 A3032 RMK AO2 SLP269 T10281044 1002221028 53001

KHOT 101053Z AUTO 00000KT 10SM CLR M02/M04 A3032 RMK AO2 SLP267 T10221044

KHOT 100953Z AUTO 00000KT 10SM CLR M02/M04 A3032 RMK AO2 SLP267 T10171044

KHOT 100853Z AUTO 00000KT 10SM CLR M01/M04 A3032 RMK AO2 SLP267 T10111039 51008

KHOT 100753Z AUTO 30003KT 10SM CLR M01/M04 A3031 RMK AO2 SLP266 T10061039

KHOT 100653Z AUTO 00000KT 10SM CLR 01/M02 A3030 RMK AO2 SLP262 T00061022

KHOT 100553Z AUTO 00000KT 10SM CLR 02/M04 A3029 RMK AO2 SLP259 T00221039 1009420011 401331044 50007

KHOT 100453Z AUTO 00000KT 10SM CLR 03/M02 A3029 RMK AO2 SLP259 T00281022

KHOT 100353Z AUTO 00000KT 10SM CLR 02/M03 A3028 RMK AO2 SLP254 T00221033

KHOT 100253Z AUTO 00000KT 10SM CLR 04/M04 A3027 RMK AO2 SLP252 T00441044 51021

KHOT 100153Z AUTO 21003KT 10SM CLR 06/M04 A3026 RMK AO2 SLP248 T00561044

KHOT 100053Z AUTO 00000KT 10SM CLR 07/M05 A3023 RMK AO2 SLP240 T00721050